Time;durP1;ratioP1;P1;durP2;ratioP2;P2;SDS_P1;SDS_P2;PMS_P1;PMS_P2;Temp;Humidity;BMP_temperature;BMP_pressure;BME280_temperature;BME280_humidity;BME280_pressure;Samples;Min_cycle;Max_cycle;Signal;HPM_P1;HPM_P2
2021/12/15 00:00:15;;;;;;;31.25;20.42;;;;;;;6.32;100.00;102190.25;852942;23;1398;-86
2021/12/15 00:00:38;;;;;;;30.63;20.60;;;;;;;6.34;100.00;102236.25;848546;23;1264;-87
2021/12/15 00:00:59;;;;;;;32.50;21.02;;;;;;;6.32;100.00;102191.13;846329;23;4242;-86
2021/12/15 00:01:19;;;;;;;35.35;21.58;;;;;;;6.33;100.00;102231.88;852675;23;1222;-87
2021/12/15 00:01:40;;;;;;;34.28;21.85;;;;;;;6.33;100.00;102198.09;853995;23;877;-86
2021/12/15 00:02:07;;;;;;;34.28;21.63;;;;;;;6.32;100.00;102188.53;852097;23;1275;-86
2021/12/15 00:02:29;;;;;;;34.95;21.90;;;;;;;6.33;100.00;102203.28;847423;23;949;-86
2021/12/15 00:02:51;;;;;;;33.53;21.45;;;;;;;6.33;100.00;102207.59;840591;23;1232;-86
2021/12/15 00:03:15;;;;;;;31.65;20.65;;;;;;;6.33;100.00;102195.50;844114;23;871;-86
2021/12/15 00:03:37;;;;;;;33.22;20.73;;;;;;;6.30;100.00;102208.38;843742;23;934;-86
2021/12/15 00:03:58;;;;;;;32.72;21.00;;;;;;;6.33;100.00;102186.81;843053;23;4232;-87
2021/12/15 00:04:27;;;;;;;35.33;22.02;;;;;;;6.32;100.00;102211.03;846943;23;1420;-86
2021/12/15 00:04:50;;;;;;;35.33;22.48;;;;;;;6.32;100.00;102198.91;850682;23;1061;-86
2021/12/15 00:05:20;;;;;;;34.86;21.66;;;;;;;6.31;100.00;102191.94;844322;23;1298;-87
2021/12/15 00:05:41;;;;;;;36.97;22.33;;;;;;;6.32;100.00;102201.53;848343;23;1571;-86
2021/12/15 00:06:10;;;;;;;36.55;22.10;;;;;;;6.33;100.00;102195.50;847837;23;1300;-86
2021/12/15 00:06:31;;;;;;;36.92;22.40;;;;;;;6.31;100.00;102191.94;848824;23;844;-86
2021/12/15 00:06:52;;;;;;;37.47;22.27;;;;;;;6.33;100.00;102190.31;851090;23;4285;-86
2021/12/15 00:07:13;;;;;;;35.37;22.50;;;;;;;6.34;100.00;102185.97;847512;23;1223;-86
2021/12/15 00:07:34;;;;;;;36.93;22.53;;;;;;;6.32;100.00;102219.69;849375;23;1235;-87
2021/12/15 00:08:03;;;;;;;37.15;22.23;;;;;;;6.30;100.00;102211.84;850286;23;1210;-86
2021/12/15 00:08:27;;;;;;;37.25;22.45;;;;;;;6.30;100.00;102183.28;851865;23;958;-86
2021/12/15 00:08:52;;;;;;;35.63;21.90;;;;;;;6.31;100.00;102191.94;851189;23;1232;-86
2021/12/15 00:09:13;;;;;;;35.22;21.55;;;;;;;6.31;100.00;102215.31;853148;23;891;-86
2021/12/15 00:09:36;;;;;;;33.50;20.98;;;;;;;6.32;100.00;102185.94;857392;23;1586;-86
2021/12/15 00:09:57;;;;;;;33.88;21.33;;;;;;;6.31;100.00;102199.75;852627;23;4270;-86
2021/12/15 00:10:19;;;;;;;33.60;21.38;;;;;;;6.32;100.00;102191.13;857910;23;1291;-86
2021/12/15 00:10:42;;;;;;;31.85;21.30;;;;;;;6.30;100.00;102206.66;853904;23;1181;-86
2021/12/15 00:11:09;;;;;;;35.83;22.23;;;;;;;6.29;100.00;102198.81;849322;23;1273;-86
2021/12/15 00:11:35;;;;;;;37.15;23.30;;;;;;;6.31;100.00;102199.75;846848;23;982;-86
2021/12/15 00:11:56;;;;;;;36.55;22.80;;;;;;;6.32;100.00;102222.28;845325;23;1303;-86
2021/12/15 00:12:18;;;;;;;37.13;22.90;;;;;;;6.30;100.00;102193.66;847112;23;1100;-86
2021/12/15 00:12:39;;;;;;;37.47;22.98;;;;;;;6.29;100.00;102206.59;845047;23;1266;-86
2021/12/15 00:12:59;;;;;;;38.57;22.80;;;;;;;6.30;100.00;102183.28;848162;23;4278;-86
2021/12/15 00:13:21;;;;;;;38.95;23.17;;;;;;;6.33;100.00;102190.31;846086;23;993;-86
2021/12/15 00:13:43;;;;;;;35.83;21.77;;;;;;;6.33;100.00;102208.50;843139;23;1270;-86
2021/12/15 00:14:09;;;;;;;34.90;21.75;;;;;;;6.32;100.00;102190.25;845394;23;799;-86
2021/12/15 00:14:32;;;;;;;34.13;21.63;;;;;;;6.32;100.00;102188.53;845326;23;1315;-86
2021/12/15 00:14:53;;;;;;;35.85;22.15;;;;;;;6.32;100.00;102219.69;845051;23;1033;-86
2021/12/15 00:15:17;;;;;;;38.47;22.83;;;;;;;6.33;100.00;102225.78;845276;23;974;-86
2021/12/15 00:15:45;;;;;;;35.80;22.35;;;;;;;6.32;100.00;102204.13;844185;23;1910;-86
2021/12/15 00:16:08;;;;;;;36.60;22.27;;;;;;;6.30;100.00;102204.06;843211;23;4899;-86
2021/12/15 00:16:29;;;;;;;37.15;22.80;;;;;;;6.31;100.00;102186.75;844900;23;1005;-86
2021/12/15 00:16:52;;;;;;;36.83;22.17;;;;;;;6.33;100.00;102186.81;848543;23;1317;-86
2021/12/15 00:17:19;;;;;;;34.95;22.58;;;;;;;6.33;100.00;102216.28;850206;23;887;-86
2021/12/15 00:17:39;;;;;;;33.72;21.60;;;;;;;6.33;100.00;102199.78;849689;23;810;-86
2021/12/15 00:18:00;;;;;;;34.65;22.05;;;;;;;6.32;100.00;102188.53;845568;23;1218;-86
2021/12/15 00:18:20;;;;;;;35.63;22.50;;;;;;;6.34;100.00;102193.78;849811;23;1251;-86
2021/12/15 00:18:44;;;;;;;35.22;22.80;;;;;;;6.34;100.00;102214.56;846997;23;1155;-86
2021/12/15 00:19:05;;;;;;;37.38;22.95;;;;;;;6.34;100.00;102214.56;843542;23;4539;-86
2021/12/15 00:19:28;;;;;;;36.35;21.67;;;;;;;6.32;100.00;102180.75;849447;23;1191;-86
2021/12/15 00:19:53;;;;;;;37.08;22.38;;;;;;;6.34;100.00;102198.97;849205;23;1185;-86
2021/12/15 00:20:17;;;;;;;37.13;22.60;;;;;;;6.33;100.00;102212.78;850013;23;1212;-86
2021/12/15 00:20:39;;;;;;;37.75;23.35;;;;;;;6.33;100.00;102187.72;846833;23;954;-86
2021/12/15 00:21:00;;;;;;;39.22;23.83;;;;;;;6.34;100.00;102198.97;846603;23;1277;-87
2021/12/15 00:21:21;;;;;;;38.58;23.50;;;;;;;6.33;100.00;102187.72;847294;23;1028;-86
2021/12/15 00:21:42;;;;;;;37.90;22.60;;;;;;;6.34;100.00;102214.56;849364;23;1325;-86
2021/12/15 00:22:04;;;;;;;34.78;21.60;;;;;;;6.35;100.00;102190.38;848740;23;4245;-86
2021/12/15 00:22:25;;;;;;;34.05;21.02;;;;;;;6.35;100.00;102185.16;846424;23;922;-86
2021/12/15 00:22:46;;;;;;;32.22;20.08;;;;;;;6.35;100.00;102200.75;845236;23;1281;-86
2021/12/15 00:23:06;;;;;;;33.13;21.13;;;;;;;6.34;100.00;102215.47;842448;23;1134;-86
2021/12/15 00:23:27;;;;;;;30.10;20.30;;;;;;;6.33;100.00;102197.19;841869;23;1216;-86
2021/12/15 00:23:49;;;;;;;34.08;21.55;;;;;;;6.32;100.00;102211.91;841190;23;1400;-86
2021/12/15 00:24:09;;;;;;;34.20;21.92;;;;;;;6.34;100.00;102189.50;842881;23;990;-86
2021/12/15 00:24:30;;;;;;;33.55;21.77;;;;;;;6.33;100.00;102195.50;842557;23;965;-86
2021/12/15 00:24:51;;;;;;;34.97;22.05;;;;;;;6.35;100.00;102191.22;840939;23;4302;-86
2021/12/15 00:25:14;;;;;;;36.78;22.33;;;;;;;6.37;100.00;102194.78;837533;23;1276;-86
2021/12/15 00:25:38;;;;;;;36.75;22.55;;;;;;;6.34;100.00;102209.38;839773;23;1031;-86
2021/12/15 00:25:58;;;;;;;37.58;23.15;;;;;;;6.33;100.00;102185.13;840662;23;1201;-86
2021/12/15 00:26:29;;;;;;;38.25;23.38;;;;;;;6.34;100.00;102188.59;845374;23;800;-86
2021/12/15 00:26:50;;;;;;;38.13;23.40;;;;;;;6.34;100.00;102184.28;844091;23;1383;-86
2021/12/15 00:27:10;;;;;;;35.92;23.02;;;;;;;6.33;100.00;102192.00;848022;23;1356;-86
2021/12/15 00:27:31;;;;;;;34.17;22.08;;;;;;;6.32;100.00;102219.69;842794;23;1097;-86
2021/12/15 00:27:53;;;;;;;32.70;21.58;;;;;;;6.34;100.00;102189.50;850736;23;4337;-86
2021/12/15 00:28:14;;;;;;;38.45;23.05;;;;;;;6.31;100.00;102199.75;851509;23;1213;-86
2021/12/15 00:28:35;;;;;;;37.78;23.10;;;;;;;6.33;100.00;102192.00;852482;23;1211;-85
2021/12/15 00:28:55;;;;;;;34.17;21.77;;;;;;;6.35;100.00;102191.22;848958;23;875;-86
2021/12/15 00:29:17;;;;;;;33.03;21.08;;;;;;;6.34;100.00;102184.28;848384;23;1422;-86
2021/12/15 00:29:38;;;;;;;34.83;21.33;;;;;;;6.34;100.00;102210.28;849719;23;764;-86
2021/12/15 00:30:05;;;;;;;35.53;21.70;;;;;;;6.32;100.00;102217.09;846750;23;1281;-86
2021/12/15 00:30:26;;;;;;;34.58;21.88;;;;;;;6.33;100.00;102190.31;848065;23;1355;-86
2021/12/15 00:30:47;;;;;;;34.42;21.58;;;;;;;6.33;100.00;102185.13;846669;23;4334;-86
2021/12/15 00:31:09;;;;;;;35.40;21.35;;;;;;;6.32;100.00;102185.06;852902;23;1252;-86
2021/12/15 00:31:32;;;;;;;32.85;21.40;;;;;;;6.34;100.00;102204.16;847536;23;1304;-86
2021/12/15 00:31:54;;;;;;;33.13;21.30;;;;;;;6.31;100.00;102210.13;847804;23;1124;-86
2021/12/15 00:32:17;;;;;;;31.92;20.63;;;;;;;6.32;100.00;102190.25;849605;23;1177;-86
2021/12/15 00:32:37;;;;;;;33.22;21.65;;;;;;;6.33;100.00;102226.69;853604;23;1256;-85
2021/12/15 00:32:59;;;;;;;34.47;21.75;;;;;;;6.32;100.00;102188.53;855143;23;1009;-86
2021/12/15 00:33:20;;;;;;;34.05;21.65;;;;;;;6.33;100.00;102205.91;858087;23;1575;-86
2021/12/15 00:33:44;;;;;;;33.28;21.58;;;;;;;6.34;100.00;102198.97;853952;23;1269;-86
2021/12/15 00:34:07;;;;;;;36.00;21.98;;;;;;;6.33;100.00;102211.09;848569;23;4572;-86
2021/12/15 00:34:34;;;;;;;34.85;21.42;;;;;;;6.34;100.00;102189.50;849066;23;1431;-86
2021/12/15 00:34:56;;;;;;;32.60;21.13;;;;;;;6.35;100.00;102196.44;845494;23;1224;-86
2021/12/15 00:35:18;;;;;;;35.78;22.50;;;;;;;6.34;100.00;102189.50;849450;23;1458;-86
2021/12/15 00:35:44;;;;;;;36.80;22.80;;;;;;;6.33;100.00;102223.16;851296;23;1937;-86
2021/12/15 00:36:06;;;;;;;35.63;22.35;;;;;;;6.35;100.00;102212.00;853706;23;1324;-86
2021/12/15 00:36:27;;;;;;;36.47;22.02;;;;;;;6.35;100.00;102200.75;851404;23;918;-86
2021/12/15 00:36:48;;;;;;;36.33;22.00;;;;;;;6.35;100.00;102190.38;844911;23;4280;-86
2021/12/15 00:37:09;;;;;;;34.72;22.02;;;;;;;6.35;100.00;102221.53;845161;23;1180;-86
2021/12/15 00:37:30;;;;;;;33.78;21.83;;;;;;;6.33;100.00;102226.69;847010;23;820;-86
2021/12/15 00:37:53;;;;;;;33.47;21.75;;;;;;;6.35;100.00;102191.22;841471;23;1309;-86
2021/12/15 00:38:17;;;;;;;35.30;21.95;;;;;;;6.35;100.00;102204.22;844691;23;1242;-86
2021/12/15 00:38:38;;;;;;;36.38;22.65;;;;;;;6.33;100.00;102205.91;839216;23;1346;-86
2021/12/15 00:38:59;;;;;;;33.85;21.10;;;;;;;6.34;100.00;102198.97;844584;23;1256;-86
2021/12/15 00:39:32;;;;;;;33.58;21.33;;;;;;;6.33;100.00;102224.06;839313;23;1401;-86
2021/12/15 00:39:53;;;;;;;31.40;20.02;;;;;;;6.33;100.00;102200.69;839092;23;4230;-86
2021/12/15 00:40:16;;;;;;;33.55;22.00;;;;;;;6.34;100.00;102193.78;843843;23;1181;-86
2021/12/15 00:40:37;;;;;;;33.72;21.95;;;;;;;6.35;100.00;102193.84;845136;23;1177;-86
2021/12/15 00:40:58;;;;;;;34.97;21.05;;;;;;;6.37;100.00;102197.38;843483;23;1243;-85
2021/12/15 00:41:19;;;;;;;31.13;20.23;;;;;;;6.35;100.00;102216.34;839962;23;1246;-86
2021/12/15 00:41:40;;;;;;;31.58;20.73;;;;;;;6.35;100.00;102227.59;848724;23;1422;-86
2021/12/15 00:42:01;;;;;;;35.92;21.90;;;;;;;6.34;100.00;102197.28;844406;23;767;-86
2021/12/15 00:42:33;;;;;;;34.47;21.88;;;;;;;6.34;100.00;102197.28;846751;23;1421;-86
2021/12/15 00:42:56;;;;;;;36.83;22.88;;;;;;;6.35;100.00;102195.56;842834;23;4295;-86
2021/12/15 00:43:18;;;;;;;37.03;22.42;;;;;;;6.37;100.00;102231.16;843851;23;1421;-86
2021/12/15 00:43:39;;;;;;;38.20;22.85;;;;;;;6.35;100.00;102213.75;843092;23;1330;-86
2021/12/15 00:44:03;;;;;;;37.88;22.55;;;;;;;6.33;100.00;102199.78;851842;23;1392;-86
2021/12/15 00:44:24;;;;;;;36.70;23.10;;;;;;;6.34;100.00;102215.47;850984;23;1358;-86
2021/12/15 00:44:44;;;;;;;35.60;22.55;;;;;;;6.37;100.00;102193.88;852663;23;756;-86
2021/12/15 00:45:06;;;;;;;34.35;22.17;;;;;;;6.35;100.00;102191.22;850825;23;1196;-86
2021/12/15 00:45:27;;;;;;;34.38;21.83;;;;;;;6.33;100.00;102221.47;853106;23;819;-86
2021/12/15 00:45:48;;;;;;;35.05;21.17;;;;;;;6.34;100.00;102219.75;843464;23;4310;-86
2021/12/15 00:46:08;;;;;;;34.25;21.13;;;;;;;6.35;100.00;102205.94;845758;23;927;-86
2021/12/15 00:46:29;;;;;;;33.53;21.33;;;;;;;6.37;100.00;102199.06;843490;23;1224;-85
2021/12/15 00:46:52;;;;;;;35.17;21.52;;;;;;;6.35;100.00;102199.03;840870;23;1149;-85
2021/12/15 00:47:13;;;;;;;34.03;21.13;;;;;;;6.36;100.00;102208.59;847388;23;1327;-86
2021/12/15 00:47:33;;;;;;;34.35;21.80;;;;;;;6.38;100.00;102216.44;848422;23;1144;-86
2021/12/15 00:47:58;;;;;;;34.38;21.45;;;;;;;6.37;100.00;102218.16;851817;23;1281;-86
2021/12/15 00:48:22;;;;;;;32.35;20.55;;;;;;;6.35;100.00;102193.84;851474;23;1153;-86
2021/12/15 00:48:43;;;;;;;31.27;20.35;;;;;;;6.37;100.00;102199.06;842109;23;4625;-84
2021/12/15 00:49:06;;;;;;;34.20;21.67;;;;;;;6.35;100.00;102231.94;845657;23;1003;-86
2021/12/15 00:49:26;;;;;;;36.13;22.55;;;;;;;6.35;100.00;102198.16;842794;23;1322;-85
2021/12/15 00:49:47;;;;;;;36.47;22.67;;;;;;;6.38;100.00;102206.06;853350;23;848;-86
2021/12/15 00:50:10;;;;;;;37.47;22.50;;;;;;;6.37;100.00;102212.97;847532;23;1124;-86
2021/12/15 00:50:35;;;;;;;37.60;22.20;;;;;;;6.35;100.00;102193.84;847804;23;1428;-86
2021/12/15 00:50:55;;;;;;;37.63;22.92;;;;;;;6.36;100.00;102195.59;847936;23;1252;-86
2021/12/15 00:51:18;;;;;;;37.03;22.73;;;;;;;6.37;100.00;102219.88;848056;23;1297;-86
2021/12/15 00:51:40;;;;;;;37.67;22.63;;;;;;;6.35;100.00;102225.00;851568;23;1196;-86
2021/12/15 00:52:02;;;;;;;38.53;23.00;;;;;;;6.37;100.00;102200.00;851382;23;4213;-85
2021/12/15 00:52:23;;;;;;;39.25;22.88;;;;;;;6.36;100.00;102211.19;853222;23;923;-86
2021/12/15 00:52:45;;;;;;;39.22;21.98;;;;;;;6.36;100.00;102198.22;847919;23;1294;-86
2021/12/15 00:53:06;;;;;;;39.05;22.42;;;;;;;6.36;100.00;102219.00;849790;23;863;-86
2021/12/15 00:53:28;;;;;;;36.40;21.85;;;;;;;6.36;100.00;102195.59;849207;23;1266;-86
2021/12/15 00:53:49;;;;;;;34.40;21.90;;;;;;;6.34;100.00;102217.16;840745;23;1252;-86
2021/12/15 00:54:10;;;;;;;33.07;21.40;;;;;;;6.34;100.00;102205.06;846405;23;1066;-86
2021/12/15 00:54:31;;;;;;;35.88;21.88;;;;;;;6.35;100.00;102206.81;847018;23;966;-86
2021/12/15 00:54:55;;;;;;;35.92;21.83;;;;;;;6.33;100.00;102211.09;848200;23;4309;-86
2021/12/15 00:55:21;;;;;;;35.72;22.10;;;;;;;6.34;100.00;102194.69;852221;23;1220;-86
2021/12/15 00:55:43;;;;;;;35.78;22.20;;;;;;;6.33;100.00;102189.41;852259;23;1870;-86
2021/12/15 00:56:04;;;;;;;36.67;21.85;;;;;;;6.34;100.00;102219.75;852096;23;1405;-86
2021/12/15 00:56:25;;;;;;;35.67;21.65;;;;;;;6.34;100.00;102220.66;852207;23;883;-86
2021/12/15 00:56:45;;;;;;;32.42;20.83;;;;;;;6.34;100.00;102193.78;847402;23;1085;-86
2021/12/15 00:57:06;;;;;;;35.40;21.10;;;;;;;6.33;100.00;102210.19;841708;23;876;-86
2021/12/15 00:57:27;;;;;;;33.63;20.65;;;;;;;6.33;100.00;102194.59;849389;23;757;-86
2021/12/15 00:57:48;;;;;;;33.03;20.60;;;;;;;6.33;100.00;102192.00;842247;23;4473;-86
2021/12/15 00:58:09;;;;;;;30.95;20.30;;;;;;;6.32;100.00;102217.09;844276;23;1159;-86
2021/12/15 00:58:30;;;;;;;31.58;20.65;;;;;;;6.41;100.00;102214.84;843221;23;1422;-86
2021/12/15 00:58:50;;;;;;;36.83;22.42;;;;;;;6.40;100.00;102210.47;851597;23;1222;-86
2021/12/15 00:59:11;;;;;;;36.92;22.65;;;;;;;6.41;100.00;102195.78;849189;23;1002;-86
2021/12/15 00:59:33;;;;;;;35.15;21.98;;;;;;;6.40;100.00;102214.81;849722;23;969;-86
2021/12/15 00:59:53;;;;;;;33.53;21.52;;;;;;;6.40;100.00;102212.22;848088;23;1208;-86
2021/12/15 01:00:20;;;;;;;35.35;21.40;;;;;;;6.40;100.00;102200.09;848297;23;1226;-86
2021/12/15 01:00:45;;;;;;;35.45;21.30;;;;;;;6.41;100.00;102193.16;852146;23;1298;-86
2021/12/15 01:01:07;;;;;;;37.50;22.20;;;;;;;6.39;100.00;102193.13;850826;23;4875;-86
2021/12/15 01:01:27;;;;;;;37.03;22.70;;;;;;;6.40;100.00;102194.03;840050;23;1296;-86
2021/12/15 01:01:50;;;;;;;37.20;22.67;;;;;;;6.39;100.00;102190.53;847647;23;1317;-86
2021/12/15 01:02:11;;;;;;;37.35;22.60;;;;;;;6.39;100.00;102207.84;843804;23;1511;-86
2021/12/15 01:02:35;;;;;;;34.22;21.25;;;;;;;6.40;100.00;102207.88;851050;23;1586;-86
2021/12/15 01:02:57;;;;;;;34.67;21.67;;;;;;;6.56;100.00;102221.44;847700;23;1310;-86
2021/12/15 01:03:18;;;;;;;38.05;21.63;;;;;;;6.65;100.00;102217.47;851956;23;1411;-86
2021/12/15 01:03:40;;;;;;;33.25;21.50;;;;;;;6.61;100.00;102207.78;849369;23;820;-85
2021/12/15 01:04:03;;;;;;;32.38;20.85;;;;;;;6.60;100.00;102192.13;841557;23;4380;-86
2021/12/15 01:04:25;;;;;;;33.25;21.20;;;;;;;6.60;100.00;102189.53;848636;23;764;-86
2021/12/15 01:04:46;;;;;;;30.95;20.75;;;;;;;6.58;100.00;102183.41;848282;23;1386;-86
2021/12/15 01:05:08;;;;;;;30.13;19.97;;;;;;;6.57;100.00;102215.41;847263;23;860;-86
2021/12/15 01:05:34;;;;;;;29.67;19.90;;;;;;;6.55;100.00;102210.16;843630;23;1354;-85
2021/12/15 01:06:06;;;;;;;29.38;19.65;;;;;;;6.54;100.00;102194.53;840258;23;1225;-86
2021/12/15 01:06:28;;;;;;;28.75;19.75;;;;;;;6.53;100.00;102213.53;842959;23;1326;-86
2021/12/15 01:06:57;;;;;;;30.58;20.38;;;;;;;6.50;100.00;102216.91;847161;23;4277;-87
2021/12/15 01:07:17;;;;;;;30.90;19.85;;;;;;;6.49;100.00;102194.34;850370;23;986;-86
2021/12/15 01:07:38;;;;;;;30.03;19.90;;;;;;;6.48;100.00;102218.56;845719;23;1017;-87
2021/12/15 01:08:02;;;;;;;32.28;20.92;;;;;;;6.47;100.00;102188.22;847833;23;1343;-86
2021/12/15 01:08:29;;;;;;;33.90;20.50;;;;;;;6.45;100.00;102215.84;847676;23;1279;-86
2021/12/15 01:08:56;;;;;;;33.50;21.02;;;;;;;6.45;100.00;102223.63;843474;23;1222;-86
2021/12/15 01:09:23;;;;;;;32.22;19.80;;;;;;;6.42;100.00;102201.03;839294;23;1325;-86
2021/12/15 01:09:51;;;;;;;33.00;21.23;;;;;;;6.42;100.00;102193.22;846082;23;4263;-86
2021/12/15 01:10:22;;;;;;;33.80;21.33;;;;;;;6.41;100.00;102190.56;843013;23;1241;-86
2021/12/15 01:11:28;;;;;;;38.72;20.58;;;;;;;6.49;100.00;102220.31;847368;23;1329;-86
2021/12/15 01:19:49;;;;;;;34.13;20.95;;;;;;;6.41;100.00;102188.88;855638;23;1413;-86
2021/12/15 01:20:18;;;;;;;36.15;21.65;;;;;;;6.41;100.00;102193.16;852600;23;1338;-86
2021/12/15 01:20:43;;;;;;;37.72;21.98;;;;;;;6.41;100.00;102191.47;848643;23;1441;-86
2021/12/15 01:21:04;;;;;;;35.75;21.77;;;;;;;6.41;100.00;102196.69;848852;23;1202;-86
2021/12/15 01:21:25;;;;;;;36.08;21.92;;;;;;;6.41;100.00;102212.25;852428;23;1214;-85
2021/12/15 01:21:45;;;;;;;34.88;21.45;;;;;;;6.41;100.00;102220.06;850638;23;4354;-85
2021/12/15 01:22:06;;;;;;;34.43;20.63;;;;;;;6.42;100.00;102198.41;851604;23;1285;-85
2021/12/15 01:22:38;;;;;;;35.22;21.25;;;;;;;6.41;100.00;102214.84;843116;23;1152;-86
2021/12/15 01:23:06;;;;;;;36.05;21.05;;;;;;;6.40;100.00;102197.50;847340;23;953;-86
2021/12/15 01:23:30;;;;;;;33.40;20.23;;;;;;;6.41;100.00;102196.69;842967;23;1273;-85
2021/12/15 01:23:51;;;;;;;33.70;20.63;;;;;;;6.41;100.00;102201.88;843718;23;1125;-86
2021/12/15 01:24:12;;;;;;;33.80;20.95;;;;;;;6.42;100.00;102232.19;842948;23;1120;-86
2021/12/15 01:24:35;;;;;;;34.58;20.30;;;;;;;6.41;100.00;102194.06;838603;23;1291;-85
2021/12/15 01:25:00;;;;;;;34.20;20.80;;;;;;;6.41;100.00;102209.66;834155;23;4406;-86
2021/12/15 01:25:28;;;;;;;36.03;20.98;;;;;;;6.41;100.00;102227.84;846255;23;1390;-85
2021/12/15 01:25:54;;;;;;;33.38;21.38;;;;;;;6.41;100.00;102222.66;848723;23;898;-85
2021/12/15 01:26:15;;;;;;;36.65;21.83;;;;;;;6.42;100.00;102197.53;847322;23;1338;-86
2021/12/15 01:26:35;;;;;;;34.88;21.52;;;;;;;6.40;100.00;102220.88;847306;23;1327;-85
2021/12/15 01:26:59;;;;;;;35.67;21.50;;;;;;;6.42;100.00;102198.41;844206;23;1124;-86
2021/12/15 01:27:21;;;;;;;37.55;21.38;;;;;;;6.40;100.00;102207.88;847864;23;1305;-86
2021/12/15 01:27:43;;;;;;;36.90;21.88;;;;;;;6.41;100.00;102227.84;851557;23;929;-85
2021/12/15 01:28:04;;;;;;;36.28;21.77;;;;;;;6.42;100.00;102192.34;850346;23;4485;-85
2021/12/15 01:28:29;;;;;;;38.83;22.30;;;;;;;6.40;100.00;102213.09;843369;23;1297;-85
2021/12/15 01:28:49;;;;;;;36.97;21.27;;;;;;;6.43;100.00;102199.31;847773;23;1327;-86
2021/12/15 01:29:10;;;;;;;34.72;20.85;;;;;;;6.41;100.00;102196.69;843145;23;1180;-85
2021/12/15 01:29:33;;;;;;;37.13;20.83;;;;;;;6.40;100.00;102209.59;847383;23;1268;-86
2021/12/15 01:29:57;;;;;;;36.28;20.90;;;;;;;6.43;100.00;102241.75;835024;23;1355;-85
2021/12/15 01:30:21;;;;;;;34.28;21.23;;;;;;;6.42;100.00;102198.41;840009;23;970;-86
2021/12/15 01:30:46;;;;;;;35.85;21.67;;;;;;;6.41;100.00;102207.06;839715;23;1347;-86
2021/12/15 01:31:08;;;;;;;36.92;21.08;;;;;;;6.41;100.00;102196.69;845085;23;4567;-86
2021/12/15 01:31:29;;;;;;;34.88;19.88;;;;;;;6.39;100.00;102193.13;846812;23;1413;-86
2021/12/15 01:31:50;;;;;;;34.20;20.38;;;;;;;6.39;100.00;102216.50;848494;23;898;-86
2021/12/15 01:32:10;;;;;;;34.87;21.00;;;;;;;6.40;100.00;102228.66;851526;23;1406;-85
2021/12/15 01:32:31;;;;;;;35.70;20.85;;;;;;;6.41;100.00;102196.69;846212;23;1206;-85
2021/12/15 01:32:52;;;;;;;34.50;20.77;;;;;;;6.41;100.00;102213.94;842618;23;1172;-85
2021/12/15 01:33:14;;;;;;;34.50;21.42;;;;;;;6.41;100.00;102203.56;844031;23;1205;-86
2021/12/15 01:33:38;;;;;;;32.38;20.42;;;;;;;6.41;100.00;102187.97;843321;23;1312;-85
2021/12/15 01:33:59;;;;;;;35.40;20.35;;;;;;;6.46;100.00;102199.44;838681;23;4357;-86
2021/12/15 01:34:20;;;;;;;33.50;20.20;;;;;;;6.51;100.00;102202.19;847267;23;1156;-86
2021/12/15 01:34:41;;;;;;;32.42;20.13;;;;;;;6.54;100.00;102191.94;839730;23;1088;-86
2021/12/15 01:35:02;;;;;;;32.28;20.23;;;;;;;6.53;100.00;102197.94;843678;23;1219;-86
2021/12/15 01:35:26;;;;;;;31.17;20.08;;;;;;;6.53;100.00;102213.53;842390;23;1281;-86
2021/12/15 01:35:49;;;;;;;31.10;20.20;;;;;;;6.51;100.00;102202.19;847697;23;1434;-85
2021/12/15 01:36:13;;;;;;;28.65;18.85;;;;;;;6.50;100.00;102205.63;847428;23;1197;-86
2021/12/15 01:36:34;;;;;;;28.17;18.50;;;;;;;6.49;100.00;102220.31;846976;23;1337;-86
2021/12/15 01:36:57;;;;;;;28.50;18.23;;;;;;;6.45;100.00;102195.97;851266;23;4267;-86
2021/12/15 01:37:18;;;;;;;29.80;19.23;;;;;;;6.47;100.00;102238.47;856904;23;1278;-86
2021/12/15 01:37:39;;;;;;;32.97;19.60;;;;;;;6.45;100.00;102219.34;849334;23;1230;-86
2021/12/15 01:38:00;;;;;;;31.75;19.92;;;;;;;6.45;100.00;102216.75;852711;23;1221;-87
2021/12/15 01:38:23;;;;;;;30.98;18.95;;;;;;;6.46;100.00;102228.00;849261;23;1435;-86
2021/12/15 01:38:46;;;;;;;30.63;19.08;;;;;;;6.44;100.00;102201.09;847272;23;1156;-87
2021/12/15 01:39:07;;;;;;;33.17;19.48;;;;;;;6.45;100.00;102226.22;843541;23;1268;-86
2021/12/15 01:39:29;;;;;;;34.33;20.73;;;;;;;6.43;100.00;102195.00;838879;23;1296;-86
2021/12/15 01:39:54;;;;;;;32.90;20.10;;;;;;;6.46;100.00;102205.50;839193;23;4265;-86
2021/12/15 01:40:26;;;;;;;30.83;19.40;;;;;;;6.45;100.00;102218.44;840869;23;903;-86
2021/12/15 01:40:47;;;;;;;33.95;19.73;;;;;;;6.43;100.00;102189.81;846933;23;1453;-86
2021/12/15 01:41:18;;;;;;;33.40;19.88;;;;;;;6.45;100.00;102198.56;842789;23;1223;-86
2021/12/15 01:41:39;;;;;;;33.72;20.20;;;;;;;6.45;100.00;102218.44;850438;23;886;-86
2021/12/15 01:42:01;;;;;;;33.10;19.73;;;;;;;6.50;100.00;102190.06;846835;23;1419;-86
2021/12/15 01:42:25;;;;;;;33.90;20.02;;;;;;;6.52;100.00;102242.94;847121;23;1335;-86
2021/12/15 01:42:46;;;;;;;32.63;19.88;;;;;;;6.52;100.00;102194.47;841871;23;4248;-86
2021/12/15 01:43:50;;;;;;;33.97;20.65;;;;;;;6.50;100.00;102221.22;843313;23;1164;-86
2021/12/15 01:46:54;;;;;;;30.52;19.45;;;;;;;6.46;100.00;102199.44;855623;23;910;-86
2021/12/15 01:47:14;;;;;;;29.45;19.08;;;;;;;6.46;100.00;102221.09;851152;23;1263;-87
2021/12/15 01:47:35;;;;;;;31.80;18.90;;;;;;;6.48;100.00;102203.84;850467;23;1175;-86
2021/12/15 01:48:15;;;;;;;31.30;19.13;;;;;;;6.48;100.00;102218.56;842793;23;1295;-87
2021/12/15 01:48:37;;;;;;;33.70;19.67;;;;;;;6.44;100.00;102220.16;844455;23;946;-86
2021/12/15 01:49:06;;;;;;;32.30;20.17;;;;;;;6.48;100.00;102209.06;846155;23;4304;-86
2021/12/15 01:49:39;;;;;;;33.15;20.77;;;;;;;6.48;100.00;102203.84;844820;23;1167;-86
2021/12/15 01:49:59;;;;;;;32.60;19.48;;;;;;;6.47;100.00;102225.47;842779;23;1323;-86
2021/12/15 01:50:23;;;;;;;34.67;20.30;;;;;;;6.46;100.00;102200.31;842549;23;1271;-86
2021/12/15 01:50:44;;;;;;;35.80;20.30;;;;;;;6.47;100.00;102216.78;851936;23;1188;-86
2021/12/15 01:51:09;;;;;;;33.72;20.25;;;;;;;6.45;100.00;102195.97;851631;23;1332;-87
2021/12/15 01:51:32;;;;;;;34.67;20.10;;;;;;;6.45;100.00;102232.34;846854;23;1021;-86
2021/12/15 01:51:56;;;;;;;33.10;19.33;;;;;;;6.46;100.00;102226.28;850521;23;4248;-86
2021/12/15 01:52:37;;;;;;;31.80;18.90;;;;;;;6.47;100.00;102227.19;847006;23;1287;-86
2021/12/15 01:52:58;;;;;;;33.03;19.25;;;;;;;6.45;100.00;102219.34;847152;23;1454;-86
2021/12/15 01:53:19;;;;;;;29.85;18.95;;;;;;;6.44;100.00;102201.09;846731;23;1166;-86
2021/12/15 01:53:40;;;;;;;30.90;19.33;;;;;;;6.43;100.00;102212.31;848085;23;1160;-86
2021/12/15 01:54:02;;;;;;;32.50;19.60;;;;;;;6.43;100.00;102218.38;849437;23;1266;-86
2021/12/15 01:54:25;;;;;;;33.35;20.35;;;;;;;6.44;100.00;102195.91;852293;23;1296;-86
2021/12/15 01:55:17;;;;;;;32.75;19.33;;;;;;;6.56;100.00;102198.06;845404;23;4250;-86
2021/12/15 01:55:38;;;;;;;32.47;19.85;;;;;;;6.57;100.00;102215.41;827510;23;1925;-86
2021/12/15 01:55:59;;;;;;;31.43;19.50;;;;;;;6.54;100.00;102202.31;839865;23;1224;-86
2021/12/15 01:56:21;;;;;;;32.35;19.67;;;;;;;6.52;100.00;102216.97;852227;23;1319;-86
2021/12/15 01:56:42;;;;;;;29.80;18.83;;;;;;;6.50;100.00;102229.88;848232;23;942;-86
2021/12/15 01:57:05;;;;;;;31.33;19.42;;;;;;;6.48;100.00;102190.88;847770;23;1414;-86
2021/12/15 01:57:30;;;;;;;30.27;18.67;;;;;;;6.50;100.00;102216.03;851825;23;1302;-86
2021/12/15 01:57:54;;;;;;;31.67;19.38;;;;;;;6.47;100.00;102233.25;851677;23;1410;-86
2021/12/15 01:58:19;;;;;;;33.05;19.92;;;;;;;6.46;100.00;102205.50;847475;23;1402;-86
2021/12/15 01:58:39;;;;;;;31.75;19.20;;;;;;;6.43;100.00;102228.78;843760;23;1488;-86
2021/12/15 01:59:00;;;;;;;31.17;19.50;;;;;;;6.44;100.00;102214.97;847677;23;1235;-86